createdAt,value
2018-07-13T00:01:37.297Z,15.80
2018-07-13T00:04:07.949Z,15.80
2018-07-13T00:06:38.473Z,15.80
2018-07-13T00:09:11.194Z,15.80
2018-07-13T00:11:43.268Z,15.80
2018-07-13T00:14:18.490Z,15.90
2018-07-13T00:16:51.105Z,15.90
2018-07-13T00:19:22.686Z,15.90
2018-07-13T00:21:53.793Z,15.90
2018-07-13T00:24:24.461Z,15.90
2018-07-13T00:26:55.665Z,15.90
2018-07-13T00:29:26.354Z,15.90
2018-07-13T00:31:57.021Z,15.90
2018-07-13T00:34:28.064Z,15.90
2018-07-13T00:36:58.754Z,15.90
2018-07-13T00:39:29.564Z,15.90
2018-07-13T00:42:00.552Z,15.80
2018-07-13T00:44:31.620Z,15.90
2018-07-13T00:47:02.246Z,15.90
2018-07-13T00:49:32.909Z,15.90
2018-07-13T00:52:03.756Z,15.80
2018-07-13T00:54:34.794Z,15.80
2018-07-13T00:57:05.858Z,15.80
2018-07-13T00:59:36.646Z,15.80
2018-07-13T01:02:07.340Z,15.80
2018-07-13T01:04:38.067Z,15.70
2018-07-13T01:07:09.032Z,15.70
2018-07-13T01:09:39.648Z,15.70
2018-07-13T01:12:10.390Z,15.70
2018-07-13T01:14:41.617Z,15.70
2018-07-13T01:17:12.546Z,15.70
2018-07-13T01:19:43.240Z,15.70
2018-07-13T01:22:14.263Z,15.70
2018-07-13T01:24:44.912Z,15.70
2018-07-13T01:27:15.615Z,15.70
2018-07-13T01:29:47.039Z,15.70
2018-07-13T01:32:17.975Z,15.70
2018-07-13T01:34:48.593Z,15.70
2018-07-13T01:37:19.197Z,15.70
2018-07-13T01:39:49.768Z,15.70
2018-07-13T01:42:20.350Z,15.70
2018-07-13T01:44:51.371Z,15.70
2018-07-13T01:47:22.522Z,15.70
2018-07-13T01:49:53.610Z,15.70
2018-07-13T01:52:24.210Z,15.70
2018-07-13T01:54:54.778Z,15.80
2018-07-13T01:57:26.174Z,15.70
2018-07-13T02:02:27.655Z,15.80
2018-07-13T02:04:58.573Z,15.80
2018-07-13T02:07:29.088Z,15.80
2018-07-13T02:09:59.667Z,15.80
2018-07-13T02:12:31.102Z,15.80
2018-07-13T02:15:02.106Z,15.80
2018-07-13T02:17:32.925Z,15.80
2018-07-13T02:22:35.724Z,15.80
2018-07-13T02:25:06.464Z,15.80
2018-07-13T02:27:37.066Z,15.80
2018-07-13T02:30:08.251Z,15.80
2018-07-13T02:32:38.872Z,15.80
2018-07-13T02:35:09.508Z,15.80
2018-07-13T02:37:40.266Z,15.80
2018-07-13T02:40:10.866Z,15.70
2018-07-13T02:42:41.507Z,15.70
2018-07-13T02:45:12.698Z,15.70
2018-07-13T02:47:43.392Z,15.70
2018-07-13T02:50:13.966Z,15.70
2018-07-13T02:52:44.874Z,15.70
2018-07-13T02:55:16.671Z,15.70
2018-07-13T02:57:47.359Z,15.70
2018-07-13T03:00:18.031Z,15.70
2018-07-13T03:05:20.166Z,15.60
2018-07-13T03:07:50.751Z,15.70
2018-07-13T03:10:21.806Z,15.70
2018-07-13T03:12:52.558Z,15.60
2018-07-13T03:15:23.575Z,15.70
2018-07-13T03:17:54.553Z,15.70
2018-07-13T03:20:25.181Z,15.80
2018-07-13T03:22:56.071Z,15.70
2018-07-13T03:25:27.014Z,15.70
2018-07-13T03:27:57.808Z,15.70
2018-07-13T03:30:28.410Z,15.70
2018-07-13T03:32:59.356Z,15.70
2018-07-13T03:35:29.943Z,15.70
2018-07-13T03:38:00.626Z,15.80
2018-07-13T03:40:31.210Z,15.70
2018-07-13T03:43:03.119Z,15.80
2018-07-13T03:45:33.726Z,15.80
2018-07-13T03:48:04.307Z,15.80
2018-07-13T03:50:34.927Z,15.80
2018-07-13T03:53:05.625Z,15.80
2018-07-13T03:55:36.346Z,15.80
2018-07-13T03:58:07.399Z,15.90
2018-07-13T04:03:08.574Z,15.90
2018-07-13T04:05:39.574Z,15.90
2018-07-13T04:08:10.542Z,15.90
2018-07-13T04:10:41.218Z,15.90
2018-07-13T04:13:12.538Z,16.00
2018-07-13T04:15:43.147Z,16.00
2018-07-13T04:18:20.723Z,16.00
2018-07-13T04:20:52.546Z,16.10
2018-07-13T04:23:24.479Z,16.10
2018-07-13T04:25:55.210Z,16.10
2018-07-13T04:28:26.586Z,16.10
2018-07-13T04:30:57.572Z,16.10
2018-07-13T04:33:28.159Z,16.10
2018-07-13T04:35:58.747Z,16.10
2018-07-13T04:38:29.442Z,16.20
2018-07-13T04:41:01.744Z,16.20
2018-07-13T04:43:32.623Z,16.20
2018-07-13T04:46:03.737Z,16.20
2018-07-13T04:48:34.674Z,16.20
2018-07-13T04:51:05.514Z,16.30
2018-07-13T04:53:37.190Z,16.30
2018-07-13T04:58:38.538Z,16.40
2018-07-13T05:01:09.913Z,16.40
2018-07-13T05:03:40.765Z,16.40
2018-07-13T05:06:12.072Z,16.40
2018-07-13T05:08:42.886Z,16.50
2018-07-13T05:11:13.542Z,16.50
2018-07-13T05:13:44.378Z,16.50
2018-07-13T05:16:15.493Z,16.60
2018-07-13T05:18:46.474Z,16.60
2018-07-13T05:21:17.232Z,16.60
2018-07-13T05:23:49.658Z,16.70
2018-07-13T05:26:20.785Z,16.70
2018-07-13T05:28:51.852Z,16.70
2018-07-13T05:31:22.884Z,16.80
2018-07-13T05:33:53.687Z,16.70
2018-07-13T05:36:24.546Z,16.70
2018-07-13T05:38:56.469Z,16.80
2018-07-13T05:41:27.282Z,16.90
2018-07-13T05:43:58.440Z,16.90
2018-07-13T05:46:29.282Z,16.90
2018-07-13T05:49:00.114Z,16.90
2018-07-13T05:51:31.510Z,16.80
2018-07-13T05:54:02.740Z,16.90
2018-07-13T05:56:33.663Z,17.00
2018-07-13T05:59:04.886Z,16.90
2018-07-13T06:01:35.990Z,17.00
2018-07-13T06:04:07.027Z,17.00
2018-07-13T06:06:37.812Z,17.10
2018-07-13T06:09:11.276Z,17.10
2018-07-13T06:11:43.643Z,17.20
2018-07-13T06:14:14.319Z,17.40
2018-07-13T06:16:45.062Z,17.50
2018-07-13T06:19:16.128Z,17.50
2018-07-13T06:21:46.708Z,17.40
2018-07-13T06:24:17.658Z,17.30
2018-07-13T06:26:48.290Z,17.30
2018-07-13T06:31:50.342Z,17.30
2018-07-13T06:34:21.107Z,17.40
2018-07-13T06:36:51.948Z,17.40
2018-07-13T06:39:23.183Z,17.50
2018-07-13T06:41:54.050Z,17.50
2018-07-13T06:44:26.411Z,17.50
2018-07-13T06:46:58.264Z,17.50
2018-07-13T06:49:29.082Z,17.70
2018-07-13T06:51:59.828Z,17.60
2018-07-13T06:54:31.468Z,17.60
2018-07-13T06:57:02.034Z,17.50
2018-07-13T06:59:32.891Z,17.60
2018-07-13T07:02:04.014Z,17.60
2018-07-13T07:04:36.905Z,17.60
2018-07-13T07:07:15.279Z,17.80
2018-07-13T07:09:51.362Z,18.10
2018-07-13T07:13:02.215Z,18.20
2018-07-13T07:15:33.326Z,17.90
2018-07-13T07:18:07.094Z,17.90
2018-07-13T07:20:38.503Z,18.00
2018-07-13T07:23:09.133Z,18.10
2018-07-13T07:25:40.594Z,18.00
2018-07-13T07:28:11.282Z,18.20
2018-07-13T07:30:42.341Z,18.30
2018-07-13T07:33:13.004Z,18.30
2018-07-13T07:35:43.946Z,18.30
2018-07-13T07:38:14.985Z,18.40
2018-07-13T07:40:46.527Z,18.50
2018-07-13T07:43:18.192Z,18.30
2018-07-13T07:45:49.276Z,18.40
2018-07-13T07:48:20.131Z,18.40
2018-07-13T07:50:51.322Z,18.20
2018-07-13T07:53:22.186Z,18.20
2018-07-13T07:55:53.776Z,18.40
2018-07-13T07:58:24.394Z,18.60
2018-07-13T08:00:55.040Z,18.70
2018-07-13T08:03:25.791Z,18.80
2018-07-13T08:05:56.745Z,18.90
2018-07-13T08:08:27.808Z,18.90
2018-07-13T08:10:58.763Z,18.90
2018-07-13T08:13:29.337Z,18.80
2018-07-13T08:16:00.096Z,19.00
2018-07-13T08:18:30.686Z,19.20
2018-07-13T08:21:02.174Z,19.20
2018-07-13T08:23:32.907Z,19.20
2018-07-13T08:26:04.231Z,19.20
2018-07-13T08:28:36.068Z,19.30
2018-07-13T08:31:07.234Z,19.40
2018-07-13T08:33:38.214Z,19.70
2018-07-13T08:36:09.180Z,19.60
2018-07-13T08:38:40.195Z,19.80
2018-07-13T08:41:11.388Z,20.00
2018-07-13T08:43:42.117Z,20.10
2018-07-13T08:46:12.878Z,20.30
2018-07-13T08:48:43.792Z,20.50
2018-07-13T08:51:14.984Z,20.70
2018-07-13T08:53:45.935Z,20.80
2018-07-13T08:56:17.976Z,20.50
2018-07-13T08:58:48.950Z,20.40
2018-07-13T09:01:19.636Z,20.40
2018-07-13T09:03:50.443Z,20.20
2018-07-13T09:08:57.065Z,20.10
2018-07-13T09:11:28.058Z,20.40
2018-07-13T09:13:58.895Z,20.70
2018-07-13T09:16:33.791Z,20.70
2018-07-13T09:19:07.541Z,20.70
2018-07-13T09:26:43.873Z,20.90
2018-07-13T09:29:15.806Z,20.70
2018-07-13T09:31:54.902Z,20.40
2018-07-13T09:34:25.894Z,20.30
2018-07-13T09:36:58.390Z,20.30
2018-07-13T09:39:31.102Z,20.70
2018-07-13T09:42:04.221Z,21.00
2018-07-13T09:44:35.254Z,21.00
2018-07-13T09:47:06.572Z,21.10
2018-07-13T09:49:37.227Z,21.00
2018-07-13T09:52:09.396Z,21.00
2018-07-13T09:54:40.394Z,20.80
2018-07-13T09:57:11.319Z,20.80
2018-07-13T09:59:42.313Z,21.00
2018-07-13T10:02:13.750Z,21.00
2018-07-13T10:04:45.471Z,20.60
2018-07-13T10:07:17.302Z,20.70
2018-07-13T10:09:48.976Z,20.70
2018-07-13T10:12:20.603Z,20.60
2018-07-13T10:14:53.642Z,20.30
2018-07-13T10:17:25.054Z,20.60
2018-07-13T10:19:55.763Z,21.40
2018-07-13T10:22:30.045Z,21.70
2018-07-13T10:25:02.458Z,21.60
2018-07-13T10:27:37.788Z,21.60
2018-07-13T10:30:13.384Z,21.60
2018-07-13T10:32:45.351Z,21.70
2018-07-13T10:35:16.209Z,21.20
2018-07-13T10:37:47.966Z,21.40
2018-07-13T10:40:19.271Z,21.40
2018-07-13T10:42:50.950Z,21.00
2018-07-13T10:45:23.840Z,21.00
2018-07-13T10:47:55.466Z,21.10
2018-07-13T10:50:26.109Z,21.30
2018-07-13T10:52:58.827Z,21.40
2018-07-13T10:55:32.569Z,21.80
2018-07-13T10:58:03.501Z,21.60
2018-07-13T11:00:35.547Z,21.40
2018-07-13T11:03:06.527Z,21.70
2018-07-13T11:10:41.372Z,21.80
2018-07-13T11:13:16.530Z,21.70
2018-07-13T11:15:49.947Z,22.10
2018-07-13T11:18:21.850Z,22.30
2018-07-13T11:20:53.630Z,21.90
2018-07-13T11:23:25.550Z,21.90
2018-07-13T11:25:57.471Z,21.70
2018-07-13T11:28:30.111Z,21.60
2018-07-13T11:31:02.060Z,22.00
2018-07-13T11:33:34.573Z,22.60
2018-07-13T11:36:06.602Z,22.70
2018-07-13T11:38:38.769Z,22.50
2018-07-13T11:41:10.744Z,22.20
2018-07-13T11:43:42.820Z,22.50
2018-07-13T11:46:14.865Z,22.70
2018-07-13T11:48:47.130Z,23.10
2018-07-13T11:51:19.061Z,23.20
2018-07-13T11:53:51.384Z,23.20
2018-07-13T11:56:23.234Z,23.10
2018-07-13T11:58:55.033Z,23.20
2018-07-13T12:01:27.406Z,23.10
2018-07-13T12:03:59.443Z,23.40
2018-07-13T12:06:31.691Z,23.80
2018-07-13T12:09:04.068Z,23.80
2018-07-13T12:11:36.555Z,24.30
2018-07-13T12:14:08.994Z,24.50
2018-07-13T12:16:41.188Z,24.80
2018-07-13T12:19:13.539Z,24.80
2018-07-13T12:21:45.567Z,25.00
2018-07-13T12:24:18.088Z,24.70
2018-07-13T12:26:50.083Z,24.40
2018-07-13T12:29:22.941Z,24.70
2018-07-13T12:31:55.698Z,24.90
2018-07-13T12:34:28.037Z,24.90
2018-07-13T12:37:00.154Z,24.70
2018-07-13T12:39:32.624Z,24.70
2018-07-13T12:42:04.787Z,24.90
2018-07-13T12:44:37.571Z,24.90
2018-07-13T12:47:09.694Z,25.00
2018-07-13T12:49:41.445Z,25.00
2018-07-13T12:52:13.353Z,24.60
2018-07-13T12:54:45.915Z,25.10
2018-07-13T12:57:18.307Z,24.40
2018-07-13T12:59:50.654Z,24.30
2018-07-13T13:02:22.996Z,24.40
2018-07-13T13:04:55.511Z,25.00
2018-07-13T13:07:27.903Z,25.00
2018-07-13T13:10:00.576Z,25.30
2018-07-13T13:12:32.594Z,24.80
2018-07-13T13:15:05.064Z,24.80
2018-07-13T13:17:37.253Z,24.70
2018-07-13T13:20:09.730Z,24.70
2018-07-13T13:22:41.120Z,24.50
2018-07-13T13:25:12.949Z,25.00
2018-07-13T13:27:44.787Z,25.30
2018-07-13T13:30:17.447Z,25.10
2018-07-13T13:32:49.828Z,24.90
2018-07-13T13:35:22.198Z,25.00
2018-07-13T13:37:54.475Z,25.20
2018-07-13T13:40:27.073Z,25.20
2018-07-13T13:42:59.390Z,25.40
2018-07-13T13:45:32.022Z,25.30
2018-07-13T13:48:03.893Z,25.10
2018-07-13T13:50:36.445Z,24.90
2018-07-13T13:53:08.954Z,24.00
2018-07-13T13:55:42.009Z,24.50
2018-07-13T13:58:14.965Z,24.80
2018-07-13T14:00:47.211Z,24.60
2018-07-13T14:03:19.510Z,24.60
2018-07-13T14:05:52.353Z,25.10
2018-07-13T14:08:25.414Z,25.50
2018-07-13T14:10:58.603Z,25.10
2018-07-13T14:13:30.745Z,25.20
2018-07-13T14:16:02.859Z,25.00
2018-07-13T14:18:35.127Z,25.00
2018-07-13T14:21:07.747Z,24.60
2018-07-13T14:23:39.202Z,24.80
2018-07-13T14:26:12.128Z,25.30
2018-07-13T14:28:45.008Z,25.10
2018-07-13T14:31:17.894Z,25.20
2018-07-13T14:33:50.167Z,25.10
2018-07-13T14:36:23.343Z,24.70
2018-07-13T14:38:55.396Z,25.00
2018-07-13T14:41:29.816Z,25.00
2018-07-13T14:44:04.490Z,25.60
2018-07-13T14:46:37.309Z,25.50
2018-07-13T14:49:09.838Z,25.30
2018-07-13T14:51:42.955Z,25.60
2018-07-13T14:54:16.476Z,25.60
2018-07-13T14:56:50.325Z,25.50
2018-07-13T14:59:22.395Z,24.80
2018-07-13T15:01:55.410Z,24.40
2018-07-13T15:04:27.845Z,24.30
2018-07-13T15:07:00.726Z,25.20
2018-07-13T15:09:32.697Z,25.70
2018-07-13T15:12:05.211Z,26.00
2018-07-13T15:14:38.196Z,25.60
2018-07-13T15:17:11.036Z,25.60
2018-07-13T15:19:51.488Z,25.20
2018-07-13T15:59:25.959Z,24.70
2018-07-13T16:01:56.911Z,24.50
2018-07-13T16:04:28.120Z,24.00
2018-07-13T16:06:59.001Z,23.70
2018-07-13T16:09:30.270Z,24.10
2018-07-13T16:12:01.623Z,24.50
2018-07-13T16:14:33.067Z,24.40
2018-07-13T16:17:03.988Z,23.60
2018-07-13T16:19:35.272Z,23.50
2018-07-13T16:22:06.304Z,23.00
2018-07-13T16:24:37.593Z,23.20
2018-07-13T16:27:08.817Z,23.40
2018-07-13T16:29:39.957Z,23.20
2018-07-13T16:32:10.962Z,22.80
2018-07-13T16:34:42.123Z,22.70
2018-07-13T16:37:12.991Z,22.60
2018-07-13T16:39:44.171Z,22.20
2018-07-13T16:42:15.453Z,21.70
2018-07-13T16:44:49.581Z,21.70
2018-07-13T16:47:21.634Z,22.70
2018-07-13T16:49:52.587Z,22.70
2018-07-13T16:52:23.898Z,22.50
2018-07-13T16:54:54.932Z,22.10
2018-07-13T16:57:25.824Z,21.70
2018-07-13T16:59:57.507Z,21.20
2018-07-13T17:02:29.427Z,21.10
2018-07-13T17:05:00.355Z,20.60
2018-07-13T17:07:31.594Z,20.80
2018-07-13T17:10:02.745Z,21.70
2018-07-13T17:12:33.723Z,22.30
2018-07-13T17:15:07.232Z,21.80
2018-07-13T17:17:38.923Z,22.00
2018-07-13T17:20:10.093Z,21.80
2018-07-13T17:25:12.071Z,22.20
2018-07-13T17:27:42.963Z,22.50
2018-07-13T17:30:13.888Z,22.60
2018-07-13T17:32:44.764Z,22.50
2018-07-13T17:35:16.053Z,22.50
2018-07-13T17:37:47.275Z,22.40
2018-07-13T17:40:18.505Z,22.10
2018-07-13T17:42:49.519Z,22.20
2018-07-13T17:45:20.436Z,22.40
2018-07-13T17:48:02.669Z,21.90
2018-07-13T17:50:36.043Z,20.90
2018-07-13T17:53:06.983Z,20.10
2018-07-13T17:55:38.231Z,19.90
2018-07-13T17:58:09.103Z,19.60
2018-07-13T18:00:40.417Z,19.30
2018-07-13T18:03:11.275Z,19.40
2018-07-13T18:05:42.284Z,19.20
2018-07-13T18:08:13.398Z,19.20
2018-07-13T18:10:44.271Z,19.90
2018-07-13T18:13:15.112Z,21.00
2018-07-13T18:15:46.591Z,21.20
2018-07-13T18:18:17.431Z,21.10
2018-07-13T18:20:48.289Z,20.70
2018-07-13T18:23:19.603Z,20.10
2018-07-13T18:25:50.460Z,19.90
2018-07-13T18:28:21.295Z,19.70
2018-07-13T18:30:52.312Z,19.30
2018-07-13T18:33:23.188Z,19.40
2018-07-13T18:35:54.627Z,19.60
2018-07-13T18:40:56.043Z,19.90
2018-07-13T18:43:27.006Z,19.70
2018-07-13T18:46:13.723Z,19.60
2018-07-13T18:48:46.251Z,19.60
2018-07-13T18:51:17.149Z,19.30
2018-07-13T18:53:48.008Z,19.20
2018-07-13T18:56:19.162Z,18.80
2018-07-13T18:58:53.007Z,18.60
2018-07-13T19:01:24.399Z,18.20
2018-07-13T19:03:55.539Z,17.80
2018-07-13T19:06:26.538Z,17.50
2018-07-13T19:11:27.997Z,16.90
2018-07-13T19:13:58.877Z,16.70
2018-07-13T19:16:30.055Z,16.50
2018-07-13T19:19:00.923Z,16.40
2018-07-13T19:21:31.879Z,16.30
2018-07-13T19:24:03.152Z,16.30
2018-07-13T19:26:34.216Z,16.20
2018-07-13T19:29:05.226Z,16.20
2018-07-13T19:31:36.767Z,16.10
2018-07-13T19:34:07.923Z,16.20
2018-07-13T19:36:38.972Z,16.20
2018-07-13T19:39:09.923Z,16.20
2018-07-13T19:41:40.966Z,16.20
2018-07-13T19:44:12.114Z,16.20
2018-07-13T19:46:42.991Z,16.20
2018-07-13T19:51:53.862Z,16.10
2018-07-13T19:54:24.733Z,16.10
2018-07-13T19:56:55.735Z,16.00
2018-07-13T19:59:32.355Z,16.00
2018-07-13T20:02:03.092Z,16.00
2018-07-13T20:04:33.674Z,16.00
2018-07-13T20:07:04.662Z,15.90
2018-07-13T20:09:35.314Z,15.90
2018-07-13T20:12:06.216Z,15.90
2018-07-13T20:14:36.787Z,15.80
2018-07-13T20:17:07.739Z,15.70
2018-07-13T20:19:38.604Z,15.70
2018-07-13T20:22:09.176Z,15.60
2018-07-13T20:24:39.781Z,15.50
2018-07-13T20:27:10.926Z,15.40
2018-07-13T20:29:41.593Z,15.40
2018-07-13T20:32:12.465Z,15.30
2018-07-13T20:34:43.353Z,15.30
2018-07-13T20:37:14.251Z,15.30
2018-07-13T20:42:15.054Z,15.40
2018-07-13T20:44:45.653Z,15.40
2018-07-13T20:47:16.257Z,15.40
2018-07-13T20:49:47.269Z,15.30
2018-07-13T20:52:18.169Z,15.30
2018-07-13T20:54:49.163Z,15.20
2018-07-13T20:57:20.186Z,15.20
2018-07-13T20:59:50.917Z,15.10
2018-07-13T21:02:22.250Z,15.10
2018-07-13T21:04:52.883Z,15.00
2018-07-13T21:07:24.167Z,14.90
2018-07-13T21:09:56.303Z,14.90
2018-07-13T21:12:32.300Z,14.80
2018-07-13T21:15:04.107Z,14.80
2018-07-13T21:17:35.082Z,14.80
2018-07-13T21:20:05.783Z,14.70
2018-07-13T21:22:40.463Z,14.70
2018-07-13T21:25:11.061Z,14.50
2018-07-13T21:27:47.505Z,14.60
2018-07-13T21:30:23.256Z,14.60
2018-07-13T21:32:54.775Z,14.50
2018-07-13T21:35:33.654Z,14.50
2018-07-13T21:38:05.951Z,14.50
2018-07-13T21:40:41.946Z,14.50
2018-07-13T21:43:18.072Z,14.40
2018-07-13T21:45:50.278Z,14.30
2018-07-13T21:48:22.485Z,14.30
2018-07-13T21:53:31.626Z,14.30
2018-07-13T21:56:06.526Z,14.20
2018-07-13T22:01:26.541Z,14.20
2018-07-13T22:03:58.953Z,14.20
2018-07-13T22:06:32.230Z,14.20
2018-07-13T22:09:07.824Z,14.20
2018-07-13T22:11:45.488Z,14.10
2018-07-13T22:14:37.961Z,14.10
2018-07-13T22:17:09.383Z,14.00
2018-07-13T22:19:42.988Z,14.00
2018-07-13T22:22:17.596Z,14.00
2018-07-13T22:24:50.655Z,14.00
2018-07-13T22:27:26.664Z,14.10
2018-07-13T22:30:09.038Z,14.10
2018-07-13T22:32:40.939Z,14.10
2018-07-13T22:40:16.795Z,14.10
2018-07-13T22:42:48.163Z,14.10
2018-07-13T22:45:19.954Z,14.10
2018-07-13T22:47:55.365Z,14.10
2018-07-13T22:50:30.401Z,14.10
2018-07-13T22:53:03.481Z,14.00
2018-07-13T22:55:35.572Z,14.00
2018-07-13T22:58:08.632Z,14.00
2018-07-13T23:00:40.611Z,14.00
2018-07-13T23:05:46.801Z,13.80
2018-07-13T23:08:18.389Z,13.80
2018-07-13T23:10:51.433Z,13.70
2018-07-13T23:13:22.111Z,13.70
2018-07-13T23:15:53.969Z,13.60
2018-07-13T23:18:24.579Z,13.50
2018-07-13T23:20:55.297Z,13.50
2018-07-13T23:23:26.431Z,13.40
2018-07-13T23:25:58.815Z,13.40
2018-07-13T23:28:29.400Z,13.30
2018-07-13T23:30:59.935Z,13.20
2018-07-13T23:33:31.550Z,13.20
2018-07-13T23:36:02.530Z,13.10
2018-07-13T23:38:34.195Z,13.10
2018-07-13T23:41:10.182Z,13.20
2018-07-13T23:43:42.040Z,13.20
2018-07-13T23:46:13.140Z,13.20
2018-07-13T23:48:44.913Z,13.20
2018-07-13T23:51:15.828Z,13.20
2018-07-13T23:53:46.964Z,13.20
2018-07-13T23:56:21.605Z,13.20
2018-07-13T23:58:58.779Z,13.20
